Terminal Aerodrome Forecast
Issued by NWS Billings, MT

Home | Current Version | Previous Version | Graphics & Text | Print | Product List | Glossary On
Versions: 1 2 3 4 5 6 7 8 9 10 11 12 13 14 15
000
FTUS45 KBYZ 230534
TAFMLS
TAF
KMLS 230534Z 2306/2406 11008KT P6SM SCT120
     FM231000 30020G30KT P6SM VCSH BKN050 BKN080
     FM231500 30028G38KT P6SM VCSH BKN050 BKN080
     FM240100 27018G28KT P6SM BKN060=

USA.gov is the U.S. government's official web portal to all federal, state and local government web resources and services.